createdAt,value
2018-02-10T14:42:25.646Z,18.95
2018-02-10T14:43:25.200Z,18.97
2018-02-10T14:44:25.225Z,18.98
2018-02-10T14:45:25.204Z,18.95
2018-02-10T14:46:25.225Z,18.98
2018-02-10T14:47:25.175Z,19.01
2018-02-10T14:48:25.181Z,18.98
2018-02-10T14:49:25.220Z,19.01
2018-02-10T14:50:25.163Z,19.01
2018-02-10T14:51:25.230Z,19.01
2018-02-10T14:52:25.173Z,19.01
2018-02-10T14:53:25.184Z,19.02
2018-02-10T14:54:25.179Z,19.02
2018-02-10T14:55:25.175Z,18.99
2018-02-10T14:56:25.207Z,18.99
2018-02-10T14:57:25.251Z,18.97
2018-02-10T14:58:25.186Z,18.94
2018-02-10T14:59:25.180Z,18.94
2018-02-10T15:00:25.259Z,18.95
2018-02-10T15:01:24.632Z,19.06
2018-02-10T15:01:48.582Z,19.09
2018-02-10T15:04:45.359Z,19.03
2018-02-10T15:04:58.724Z,19.05
2018-02-10T15:05:58.468Z,19.08
2018-02-10T15:06:58.360Z,19.05
2018-02-10T15:07:58.343Z,19.03
2018-02-10T15:08:58.344Z,19.01
2018-02-10T15:09:58.316Z,18.98
2018-02-10T15:10:58.327Z,18.99
2018-02-10T15:11:58.358Z,18.98
2018-02-10T15:12:58.338Z,18.97
2018-02-10T15:13:58.344Z,18.95
2018-02-10T15:14:58.319Z,18.94
2018-02-10T15:15:58.319Z,18.92
2018-02-10T15:16:58.355Z,18.9
2018-02-10T15:17:58.370Z,18.91
2018-02-10T15:18:58.344Z,18.94
2018-02-10T15:19:58.341Z,18.92
2018-02-10T15:20:58.408Z,18.91
2018-02-10T15:21:58.336Z,18.91
2018-02-10T15:22:58.350Z,18.92
2018-02-10T15:23:58.357Z,18.92
2018-02-10T15:24:58.351Z,18.91
2018-02-10T15:25:58.330Z,18.92
2018-02-10T15:26:58.343Z,18.92
2018-02-10T15:27:58.328Z,18.92
2018-02-10T15:28:58.367Z,18.92
2018-02-10T15:29:58.304Z,18.9
2018-02-10T15:30:58.374Z,18.91
2018-02-10T15:31:58.347Z,18.9
2018-02-10T15:32:58.337Z,18.92
2018-02-10T15:33:58.322Z,18.92
2018-02-10T15:34:58.340Z,18.92
2018-02-10T15:35:58.398Z,18.92
2018-02-10T15:36:58.292Z,18.92
2018-02-10T15:37:58.345Z,18.92
2018-02-10T15:38:58.484Z,18.94
2018-02-10T15:39:58.376Z,18.94
2018-02-10T15:40:58.361Z,18.92
2018-02-10T15:41:58.415Z,18.92
2018-02-10T15:42:58.392Z,18.92
2018-02-10T15:43:58.380Z,18.92
2018-02-10T15:44:58.391Z,18.94
2018-02-10T15:45:58.381Z,18.94
2018-02-10T15:46:58.355Z,18.92
2018-02-10T15:47:58.433Z,18.92
2018-02-10T15:48:58.393Z,18.94
2018-02-10T15:49:58.387Z,18.92
2018-02-10T15:50:58.364Z,18.92
2018-02-10T15:51:58.420Z,18.91
2018-02-10T15:52:58.412Z,18.94
2018-02-10T15:53:58.428Z,18.92
2018-02-10T15:54:58.393Z,18.94
2018-02-10T15:55:58.368Z,18.92
2018-02-10T15:56:58.382Z,18.95
2018-02-10T15:57:58.352Z,18.92
2018-02-10T15:58:58.358Z,18.95
2018-02-10T15:59:58.365Z,19.01
2018-02-10T16:00:58.367Z,18.98
2018-02-10T16:01:58.367Z,18.99
2018-02-10T16:02:58.376Z,18.97
2018-02-10T16:03:58.357Z,19.01
2018-02-10T16:04:58.324Z,18.99
2018-02-10T16:05:58.636Z,19.01
2018-02-10T16:06:58.356Z,19.02
2018-02-10T16:07:58.362Z,19.03
2018-02-10T16:08:58.387Z,19.05
2018-02-10T16:09:58.308Z,19.03
2018-02-10T16:10:58.364Z,19.08
2018-02-10T16:11:58.435Z,19.09
2018-02-10T16:12:58.335Z,19.11
2018-02-10T16:13:58.359Z,19.09
2018-02-10T16:14:58.326Z,19.08
2018-02-10T16:15:58.399Z,19.11
2018-02-10T16:16:58.361Z,19.11
2018-02-10T16:17:58.444Z,19.13
2018-02-10T16:18:58.346Z,19.13
2018-02-10T16:19:58.352Z,19.13
2018-02-10T16:20:58.418Z,19.13
2018-02-10T16:21:58.361Z,19.15
2018-02-10T16:22:58.339Z,19.15
2018-02-10T16:23:58.355Z,19.16
2018-02-10T16:24:58.361Z,19.18
2018-02-10T16:25:58.379Z,19.18
2018-02-10T16:26:58.344Z,19.19
2018-02-10T16:27:58.351Z,19.19
2018-02-10T16:28:58.343Z,19.22
2018-02-10T16:29:58.351Z,19.23
2018-02-10T16:30:58.370Z,19.22
2018-02-10T16:31:58.326Z,19.25
2018-02-10T16:32:58.363Z,19.23
2018-02-10T16:33:58.425Z,19.25
2018-02-10T16:34:58.335Z,19.25
2018-02-10T16:35:58.358Z,19.25
2018-02-10T16:36:58.354Z,19.23
2018-02-10T16:37:58.382Z,19.26
2018-02-10T16:38:58.371Z,19.26
2018-02-10T16:39:58.355Z,19.26
2018-02-10T16:40:58.626Z,19.3
2018-02-10T16:41:58.463Z,19.3
2018-02-10T16:42:58.338Z,19.27
2018-02-10T16:43:58.349Z,19.3
2018-02-10T16:44:58.396Z,19.32
2018-02-10T16:45:58.506Z,19.32
2018-02-10T16:46:58.429Z,19.3
2018-02-10T16:47:58.374Z,19.29
2018-02-10T16:48:58.400Z,19.32
2018-02-10T16:49:58.301Z,19.33
2018-02-10T16:51:18.495Z,19.37
2018-02-10T16:51:24.358Z,19.36
2018-02-10T16:51:30.934Z,19.36
2018-02-10T16:52:30.483Z,19.36
2018-02-10T16:53:30.496Z,19.37
2018-02-10T16:55:30.478Z,19.37
2018-02-10T16:56:30.599Z,19.39
2018-02-10T16:57:30.486Z,19.4
2018-02-10T16:58:30.475Z,19.42
2018-02-10T16:59:30.535Z,19.37
2018-02-10T17:00:30.571Z,19.43
2018-02-10T17:01:30.492Z,19.43
2018-02-10T17:01:52.733Z,19.58
2018-02-10T17:02:52.334Z,19.61
2018-02-10T17:03:52.332Z,19.49
2018-02-10T17:04:52.339Z,19.39
2018-02-10T17:05:52.428Z,19.35
2018-02-10T17:07:52.408Z,19.26
2018-02-10T17:08:52.421Z,19.2
2018-02-10T17:09:52.329Z,19.18
2018-02-10T17:10:52.335Z,19.16
2018-02-10T17:11:52.359Z,19.16
2018-02-10T17:12:52.359Z,19.12
2018-02-10T17:13:52.327Z,19.13
2018-02-10T17:14:52.357Z,19.09
2018-02-10T17:15:52.324Z,19.11
2018-02-10T17:16:52.380Z,19.09
2018-02-10T17:17:52.519Z,19.06
2018-02-10T17:18:52.350Z,19.05
2018-02-10T17:19:52.324Z,19.05
2018-02-10T17:20:52.413Z,19.03
2018-02-10T17:22:52.345Z,19.03
2018-02-10T17:23:52.355Z,19.05
2018-02-10T17:24:52.319Z,19.08
2018-02-10T17:27:52.336Z,19.12
2018-02-10T17:28:52.313Z,19.09
2018-02-10T17:29:52.355Z,19.11
2018-02-10T17:30:52.309Z,19.06
2018-02-10T17:31:52.331Z,19.09
2018-02-10T17:32:52.343Z,19.05
2018-02-10T17:33:52.392Z,19.03
2018-02-10T17:34:52.403Z,19.06
2018-02-10T17:35:52.389Z,19.08
2018-02-10T17:36:52.386Z,19.06
2018-02-10T17:37:52.422Z,19.08
2018-02-10T17:38:52.469Z,19.08
2018-02-10T17:39:52.442Z,19.11
2018-02-10T17:40:52.339Z,19.12
2018-02-10T17:41:52.354Z,19.09
2018-02-10T17:42:52.353Z,19.11
2018-02-10T17:43:52.373Z,19.13
2018-02-10T17:44:52.412Z,19.12
2018-02-10T17:45:52.328Z,19.13
2018-02-10T17:46:52.336Z,19.12
2018-02-10T17:47:52.415Z,19.12
2018-02-10T17:48:52.451Z,19.09
2018-02-10T17:50:52.349Z,19.13
2018-02-10T17:51:52.314Z,19.13
2018-02-10T17:52:52.346Z,19.13
2018-02-10T17:53:52.381Z,19.15
2018-02-10T17:54:52.364Z,19.13
2018-02-10T17:55:52.359Z,19.15
2018-02-10T17:56:52.362Z,19.18
2018-02-10T17:57:52.351Z,19.18
2018-02-10T17:58:52.396Z,19.16
2018-02-10T17:59:52.464Z,19.15
2018-02-10T18:00:52.283Z,19.11
2018-02-10T18:01:52.317Z,19.13
2018-02-10T18:02:52.384Z,19.11
2018-02-10T18:03:52.342Z,19.11
2018-02-10T18:04:52.343Z,19.09
2018-02-10T18:05:52.407Z,19.13
2018-02-10T18:06:52.362Z,19.16
2018-02-10T18:07:52.330Z,19.13
2018-02-10T18:08:52.433Z,19.15
2018-02-10T18:09:52.359Z,19.18
2018-02-10T18:10:52.334Z,19.19
2018-02-10T18:11:52.402Z,19.2
2018-02-10T18:12:52.352Z,19.19
2018-02-10T18:13:52.313Z,19.2
2018-02-10T18:14:52.360Z,19.23
2018-02-10T18:15:52.522Z,19.2
2018-02-10T18:16:52.395Z,19.2
2018-02-10T18:17:52.398Z,19.18
2018-02-10T18:18:52.345Z,19.16
2018-02-10T18:19:52.367Z,19.16
2018-02-10T18:20:52.466Z,19.13
2018-02-10T18:21:52.360Z,19.13
2018-02-10T18:22:52.357Z,19.13
2018-02-10T18:23:52.335Z,19.12
2018-02-10T18:24:52.341Z,19.15
2018-02-10T18:25:52.396Z,19.12
2018-02-10T18:26:52.349Z,19.09
2018-02-10T18:27:52.357Z,19.09
2018-02-10T18:28:52.389Z,19.12
2018-02-10T18:29:52.445Z,19.09
2018-02-10T18:30:52.518Z,19.11
2018-02-10T18:31:52.368Z,19.11
2018-02-10T18:32:52.392Z,19.05
2018-02-10T18:33:52.337Z,19.08
2018-02-10T18:34:52.305Z,19.06
2018-02-10T18:35:52.438Z,19.06
2018-02-10T18:36:52.289Z,19.06
2018-02-10T18:37:52.288Z,19.06
2018-02-10T18:38:52.345Z,19.06
2018-02-10T18:40:52.332Z,19.05
2018-02-10T18:41:52.338Z,19.03
2018-02-10T18:42:52.317Z,19.05
2018-02-10T18:43:52.383Z,19.05
2018-02-10T18:45:52.259Z,19.05
2018-02-10T18:46:52.266Z,19.03
2018-02-10T18:47:52.277Z,19.01
2018-02-10T18:48:52.258Z,19.01
2018-02-10T18:49:52.274Z,18.99
2018-02-10T18:50:52.329Z,18.98
2018-02-10T18:51:52.249Z,19.01
2018-02-10T18:52:52.262Z,18.99
2018-02-10T18:53:52.320Z,18.98
2018-02-10T18:54:52.271Z,19.01
2018-02-10T18:55:52.289Z,18.99
2018-02-10T18:57:52.320Z,18.98
2018-02-10T18:58:52.263Z,18.99
2018-02-10T18:59:52.291Z,18.99
2018-02-10T19:00:52.324Z,18.98
2018-02-10T19:01:52.272Z,19.02
2018-02-10T19:02:52.272Z,18.99
2018-02-10T19:03:52.261Z,18.98
2018-02-10T19:04:52.312Z,19.01
2018-02-10T19:05:52.334Z,18.99
2018-02-10T19:06:52.320Z,18.98
2018-02-10T19:07:52.397Z,18.98
2018-02-10T19:08:52.484Z,18.98
2018-02-10T19:09:52.364Z,18.99
2018-02-10T19:44:02.774Z,18.9
2018-02-10T19:45:02.358Z,18.9
2018-02-10T19:46:02.358Z,18.91
2018-02-10T19:47:02.333Z,18.91
2018-02-10T19:49:02.375Z,18.87
2018-02-10T19:50:02.352Z,18.87
2018-02-10T19:51:02.341Z,18.87
2018-02-10T19:52:02.331Z,18.85
2018-02-10T19:53:02.367Z,18.85
2018-02-10T19:54:02.364Z,18.84
2018-02-10T19:55:02.324Z,18.83
2018-02-10T19:56:02.357Z,18.81
2018-02-10T19:57:02.334Z,18.83
2018-02-10T19:58:02.448Z,18.78
2018-02-10T19:59:02.333Z,18.8
2018-02-10T20:00:02.397Z,18.81
2018-02-10T20:01:02.407Z,18.78
2018-02-10T20:02:02.337Z,18.8
2018-02-10T20:03:02.351Z,18.77
2018-02-10T20:04:02.320Z,18.78
2018-02-10T20:05:02.325Z,18.8
2018-02-10T20:06:02.331Z,18.77
2018-02-10T20:07:02.355Z,18.75
2018-02-10T20:08:02.319Z,18.73
2018-02-10T20:09:02.376Z,18.75
2018-02-10T20:10:02.352Z,18.73
2018-02-10T20:11:02.324Z,18.75
2018-02-10T20:13:02.358Z,18.71
2018-02-10T20:14:02.351Z,18.75
2018-02-10T20:15:02.334Z,18.74
2018-02-10T20:16:02.614Z,18.74
2018-02-10T20:17:02.423Z,18.73
2018-02-10T20:18:02.403Z,18.71
2018-02-10T20:19:02.376Z,18.7
2018-02-10T20:20:02.352Z,18.71
2018-02-10T20:20:31.940Z,18.78
2018-02-10T20:21:31.526Z,18.73
2018-02-10T20:22:31.449Z,18.67
2018-02-10T20:23:31.575Z,18.66
2018-02-10T20:24:31.579Z,18.63
2018-02-10T20:26:31.517Z,18.58
2018-02-10T20:27:31.475Z,18.57
2018-02-10T20:28:31.469Z,18.58
2018-02-10T20:29:31.561Z,18.57
2018-02-10T20:30:31.576Z,18.54
2018-02-10T20:31:31.452Z,18.56
2018-02-10T20:32:31.497Z,18.54
2018-02-10T20:33:31.459Z,18.53
2018-02-10T20:33:54.571Z,18.53
2018-02-10T20:34:54.233Z,18.53
2018-02-10T20:36:54.105Z,18.47
2018-02-10T20:37:54.112Z,18.49
2018-02-10T20:38:26.542Z,18.49
2018-02-10T20:39:26.087Z,18.49
2018-02-10T20:40:25.988Z,18.49
2018-02-10T20:41:25.983Z,18.47
2018-02-10T20:41:47.037Z,18.47
2018-02-10T20:42:46.637Z,18.49
2018-02-10T20:43:28.576Z,18.43
2018-02-10T20:44:28.127Z,18.46
2018-02-10T20:44:50.204Z,18.46
2018-02-10T20:45:49.768Z,18.47
2018-02-10T20:46:49.735Z,18.5
2018-02-10T20:47:49.764Z,18.49
2018-02-10T20:48:49.831Z,18.49
2018-02-10T20:49:49.775Z,18.47
2018-02-10T20:50:49.890Z,18.51
2018-02-10T20:51:49.712Z,18.47
2018-02-10T20:52:49.727Z,18.47
2018-02-10T20:53:49.797Z,18.44
2018-02-10T20:54:49.803Z,18.47
2018-02-10T20:55:49.770Z,18.49
2018-02-10T20:56:49.783Z,18.49
2018-02-10T20:57:49.748Z,18.46
2018-02-10T20:58:49.756Z,18.44
2018-02-10T20:59:49.806Z,18.44
2018-02-10T21:10:37.244Z,18.49
2018-02-10T21:11:36.885Z,18.51
2018-02-10T21:12:23.274Z,18.51
2018-02-10T21:13:22.837Z,18.49
2018-02-10T21:14:03.468Z,18.5
2018-02-10T21:15:03.038Z,18.5
2018-02-10T21:16:03.016Z,18.47
2018-02-10T21:17:03.028Z,18.47
2018-02-10T21:18:03.100Z,18.43
2018-02-10T21:20:03.006Z,18.44
2018-02-10T21:21:03.054Z,18.41
2018-02-10T21:22:03.003Z,18.4
2018-02-10T21:23:03.015Z,18.4
2018-02-10T21:24:21.779Z,18.41
2018-02-10T21:25:21.335Z,18.37
2018-02-10T21:25:45.369Z,18.36
2018-02-10T21:26:44.916Z,18.37
2018-02-10T21:27:40.041Z,18.36
2018-02-10T21:28:39.585Z,18.35
2018-02-10T21:29:39.665Z,18.32
2018-02-10T21:30:39.633Z,18.33
2018-02-10T21:31:39.596Z,18.3
2018-02-10T21:32:10.583Z,18.36
2018-02-10T21:33:10.487Z,18.39
2018-02-10T21:34:10.190Z,18.37
2018-02-10T21:35:10.120Z,18.39
2018-02-10T21:36:10.279Z,18.37
2018-02-10T21:37:10.152Z,18.37
2018-02-10T21:37:46.916Z,18.46
2018-02-10T21:38:46.548Z,18.51
2018-02-10T21:39:46.477Z,18.49
2018-02-10T21:40:46.460Z,18.46
2018-02-10T21:41:46.474Z,18.4
2018-02-10T21:42:46.488Z,18.36
2018-02-10T21:43:46.447Z,18.33
2018-02-10T21:44:49.973Z,18.32
2018-02-10T21:45:46.457Z,18.26
2018-02-10T21:46:46.476Z,18.22
2018-02-10T21:47:46.567Z,18.18
2018-02-10T21:48:46.493Z,18.13
2018-02-10T21:49:46.460Z,18.12
2018-02-10T21:50:46.725Z,18.12
2018-02-10T21:51:46.558Z,18.08
2018-02-10T21:52:46.572Z,18.08
2018-02-10T21:53:46.747Z,18.04
2018-02-10T21:54:46.491Z,18.01
2018-02-10T21:55:46.465Z,17.98
2018-02-10T21:56:46.539Z,17.98
2018-02-10T21:57:46.567Z,17.97
2018-02-10T21:58:46.535Z,17.95
2018-02-10T21:59:46.538Z,17.94
2018-02-10T22:00:46.457Z,17.93
2018-02-10T22:01:46.466Z,17.93
2018-02-10T22:02:46.577Z,17.88
2018-02-10T22:03:46.456Z,17.89
2018-02-10T22:04:46.481Z,17.89
2018-02-10T22:05:46.524Z,17.85
2018-02-10T22:06:46.532Z,17.84
2018-02-10T22:07:46.449Z,17.82
2018-02-10T22:08:46.507Z,17.82
2018-02-10T22:09:46.481Z,17.84
2018-02-10T22:10:46.472Z,17.81
2018-02-10T22:11:46.502Z,17.8
2018-02-10T22:12:46.507Z,17.77
2018-02-10T22:13:46.462Z,17.78
2018-02-10T22:14:46.567Z,17.76
2018-02-10T22:15:46.504Z,17.77
2018-02-10T22:16:46.443Z,17.74
2018-02-10T22:17:46.538Z,17.76
2018-02-10T22:18:46.447Z,17.74
2018-02-10T22:19:46.449Z,17.74
2018-02-10T22:20:46.536Z,17.74
2018-02-10T22:21:46.454Z,17.7
2018-02-10T22:22:46.473Z,17.73
2018-02-10T22:23:46.521Z,17.7
2018-02-10T22:24:46.481Z,17.67
2018-02-10T22:25:46.470Z,17.68
2018-02-10T22:26:46.514Z,17.66
2018-02-10T22:27:46.472Z,17.67
2018-02-10T22:28:46.467Z,17.66
2018-02-10T22:29:46.520Z,17.66
2018-02-10T22:30:46.540Z,17.61
2018-02-10T22:31:46.474Z,17.61
2018-02-10T22:32:46.501Z,17.63
2018-02-10T22:33:46.466Z,17.61
2018-02-10T22:34:52.705Z,17.59
2018-02-10T22:35:46.513Z,17.6
2018-02-10T22:36:46.468Z,17.57
2018-02-10T22:37:46.448Z,17.56
2018-02-10T22:38:46.445Z,17.59
2018-02-10T22:39:46.471Z,17.56
2018-02-10T22:40:46.446Z,17.56
2018-02-10T22:41:46.446Z,17.53
2018-02-10T22:42:46.437Z,17.53
2018-02-10T22:43:46.459Z,17.53
2018-02-10T22:44:46.949Z,17.53
2018-02-10T22:45:46.534Z,17.5
2018-02-10T22:46:46.540Z,17.5
2018-02-10T22:50:46.754Z,17.49
2018-02-10T22:51:46.456Z,17.48
2018-02-10T22:52:46.441Z,17.48
2018-02-10T22:53:46.467Z,17.49
2018-02-10T22:54:46.461Z,17.46
2018-02-10T22:55:46.487Z,17.45
2018-02-10T22:56:46.432Z,17.45
2018-02-10T22:57:46.440Z,17.46
2018-02-10T22:58:46.453Z,17.43
2018-02-10T22:59:46.453Z,17.42
2018-02-10T23:00:46.467Z,17.43
2018-02-10T23:01:46.447Z,17.42
2018-02-10T23:02:46.413Z,17.42
2018-02-10T23:03:46.425Z,17.4
2018-02-10T23:04:46.703Z,17.4
2018-02-10T23:05:46.456Z,17.4
2018-02-10T23:06:46.445Z,17.36
2018-02-10T23:07:46.519Z,17.39
2018-02-10T23:08:46.443Z,17.38
2018-02-10T23:09:46.436Z,17.35
2018-02-10T23:10:46.426Z,17.36
2018-02-10T23:11:46.465Z,17.38
2018-02-10T23:12:46.448Z,17.36
2018-02-10T23:13:46.429Z,17.33
2018-02-10T23:14:46.464Z,17.32
2018-02-10T23:15:46.428Z,17.32
2018-02-10T23:16:46.419Z,17.33
2018-02-10T23:17:46.428Z,17.32
2018-02-10T23:18:46.516Z,17.31
2018-02-10T23:19:46.544Z,17.32
2018-02-10T23:20:46.436Z,17.31
2018-02-10T23:21:46.449Z,17.31
2018-02-10T23:22:46.426Z,17.28
2018-02-10T23:23:46.414Z,17.29
2018-02-10T23:24:46.510Z,17.29
2018-02-10T23:25:46.425Z,17.28
2018-02-10T23:26:46.466Z,17.26
2018-02-10T23:27:46.469Z,17.25
2018-02-10T23:28:46.426Z,17.26
2018-02-10T23:29:46.450Z,17.26
2018-02-10T23:30:46.441Z,17.26
2018-02-10T23:31:46.462Z,17.23
2018-02-10T23:32:46.468Z,17.23
2018-02-10T23:33:46.434Z,17.25
2018-02-10T23:34:46.422Z,17.22
2018-02-10T23:35:46.277Z,17.19
2018-02-10T23:36:46.441Z,17.21
2018-02-10T23:37:46.424Z,17.22
2018-02-10T23:38:46.420Z,17.19
2018-02-10T23:39:46.413Z,17.19
2018-02-10T23:40:46.426Z,17.21
2018-02-10T23:41:46.614Z,17.21
2018-02-10T23:42:46.426Z,17.19
2018-02-10T23:43:46.426Z,17.16
2018-02-10T23:44:46.408Z,17.16
2018-02-10T23:45:46.422Z,17.18
2018-02-10T23:46:46.442Z,17.15
2018-02-10T23:47:46.420Z,17.16
2018-02-10T23:48:46.406Z,17.16
2018-02-10T23:49:46.422Z,17.15
2018-02-10T23:50:46.405Z,17.14
2018-02-10T23:51:46.410Z,17.14
2018-02-10T23:52:46.685Z,17.14
2018-02-10T23:53:46.426Z,17.14
2018-02-10T23:54:46.406Z,17.14
2018-02-10T23:55:46.407Z,17.12
2018-02-10T23:56:46.394Z,17.09
2018-02-10T23:57:46.443Z,17.12
2018-02-10T23:58:46.423Z,17.09
2018-02-10T23:59:46.417Z,17.09
